sensor_id;sensor_type;location;lat;lon;timestamp;P1;durP1;ratioP1;P2;durP2;ratioP2
9256;SDS011;4665;51.368;6.782;2024-02-23T00:01:47;0.40;;;0.40;;
9256;SDS011;4665;51.368;6.782;2024-02-23T00:04:22;0.57;;;0.57;;
9256;SDS011;4665;51.368;6.782;2024-02-23T00:12:45;0.37;;;0.37;;
9256;SDS011;4665;51.368;6.782;2024-02-23T00:15:14;0.60;;;0.60;;
9256;SDS011;4665;51.368;6.782;2024-02-23T00:17:39;0.40;;;0.40;;
9256;SDS011;4665;51.368;6.782;2024-02-23T00:20:22;0.73;;;0.73;;
9256;SDS011;4665;51.368;6.782;2024-02-23T00:22:48;0.60;;;0.60;;
9256;SDS011;4665;51.368;6.782;2024-02-23T00:25:14;0.70;;;0.70;;
9256;SDS011;4665;51.368;6.782;2024-02-23T00:27:39;1.10;;;0.80;;
9256;SDS011;4665;51.368;6.782;2024-02-23T00:30:18;1.07;;;0.97;;
9256;SDS011;4665;51.368;6.782;2024-02-23T00:32:44;0.90;;;0.90;;
9256;SDS011;4665;51.368;6.782;2024-02-23T00:38:05;1.40;;;1.40;;
9256;SDS011;4665;51.368;6.782;2024-02-23T00:43:39;2.10;;;1.17;;
9256;SDS011;4665;51.368;6.782;2024-02-23T00:46:09;1.13;;;1.13;;
9256;SDS011;4665;51.368;6.782;2024-02-23T00:48:35;1.83;;;1.33;;
9256;SDS011;4665;51.368;6.782;2024-02-23T00:51:03;1.23;;;1.23;;
9256;SDS011;4665;51.368;6.782;2024-02-23T00:53:30;1.50;;;1.40;;
9256;SDS011;4665;51.368;6.782;2024-02-23T00:55:56;1.30;;;1.20;;
9256;SDS011;4665;51.368;6.782;2024-02-23T00:58:21;1.17;;;1.10;;
9256;SDS011;4665;51.368;6.782;2024-02-23T01:00:48;0.97;;;0.97;;
9256;SDS011;4665;51.368;6.782;2024-02-23T01:03:13;1.17;;;1.07;;
9256;SDS011;4665;51.368;6.782;2024-02-23T01:05:39;1.40;;;1.30;;
9256;SDS011;4665;51.368;6.782;2024-02-23T01:08:10;1.10;;;1.00;;
9256;SDS011;4665;51.368;6.782;2024-02-23T01:10:36;0.80;;;0.80;;
9256;SDS011;4665;51.368;6.782;2024-02-23T01:13:04;1.03;;;0.93;;
9256;SDS011;4665;51.368;6.782;2024-02-23T01:15:30;1.80;;;1.00;;
9256;SDS011;4665;51.368;6.782;2024-02-23T01:17:59;1.00;;;1.00;;
9256;SDS011;4665;51.368;6.782;2024-02-23T01:20:25;0.40;;;0.40;;
9256;SDS011;4665;51.368;6.782;2024-02-23T01:22:52;0.53;;;0.53;;
9256;SDS011;4665;51.368;6.782;2024-02-23T01:25:17;0.83;;;0.60;;
9256;SDS011;4665;51.368;6.782;2024-02-23T01:27:44;1.70;;;0.60;;
9256;SDS011;4665;51.368;6.782;2024-02-23T01:30:09;0.70;;;0.70;;
9256;SDS011;4665;51.368;6.782;2024-02-23T01:32:37;0.67;;;0.50;;
9256;SDS011;4665;51.368;6.782;2024-02-23T01:35:04;0.63;;;0.63;;
9256;SDS011;4665;51.368;6.782;2024-02-23T01:37:32;0.50;;;0.50;;
9256;SDS011;4665;51.368;6.782;2024-02-23T01:39:57;0.33;;;0.33;;
9256;SDS011;4665;51.368;6.782;2024-02-23T01:42:28;0.77;;;0.43;;
9256;SDS011;4665;51.368;6.782;2024-02-23T01:44:53;0.87;;;0.70;;
9256;SDS011;4665;51.368;6.782;2024-02-23T01:47:22;0.70;;;0.70;;
9256;SDS011;4665;51.368;6.782;2024-02-23T01:49:47;0.87;;;0.50;;
9256;SDS011;4665;51.368;6.782;2024-02-23T01:52:22;0.70;;;0.70;;
9256;SDS011;4665;51.368;6.782;2024-02-23T01:54:47;0.40;;;0.40;;
9256;SDS011;4665;51.368;6.782;2024-02-23T02:00:01;0.10;;;0.10;;
9256;SDS011;4665;51.368;6.782;2024-02-23T02:02:29;1.70;;;0.87;;
9256;SDS011;4665;51.368;6.782;2024-02-23T02:04:55;0.50;;;0.50;;
9256;SDS011;4665;51.368;6.782;2024-02-23T02:10:13;1.20;;;0.43;;
9256;SDS011;4665;51.368;6.782;2024-02-23T02:15:26;0.40;;;0.40;;
9256;SDS011;4665;51.368;6.782;2024-02-23T02:20:25;4.30;;;0.70;;
9256;SDS011;4665;51.368;6.782;2024-02-23T02:25:39;0.80;;;0.80;;
9256;SDS011;4665;51.368;6.782;2024-02-23T02:28:06;3.40;;;0.90;;
9256;SDS011;4665;51.368;6.782;2024-02-23T02:30:32;1.03;;;0.80;;
9256;SDS011;4665;51.368;6.782;2024-02-23T02:32:58;2.17;;;0.60;;
9256;SDS011;4665;51.368;6.782;2024-02-23T02:35:23;2.73;;;0.97;;
9256;SDS011;4665;51.368;6.782;2024-02-23T02:40:36;1.37;;;0.77;;
9256;SDS011;4665;51.368;6.782;2024-02-23T02:43:01;1.37;;;0.80;;
9256;SDS011;4665;51.368;6.782;2024-02-23T02:45:26;3.10;;;0.83;;
9256;SDS011;4665;51.368;6.782;2024-02-23T02:47:53;3.50;;;0.90;;
9256;SDS011;4665;51.368;6.782;2024-02-23T02:50:18;2.67;;;0.73;;
9256;SDS011;4665;51.368;6.782;2024-02-23T02:55:42;4.07;;;0.90;;
9256;SDS011;4665;51.368;6.782;2024-02-23T02:58:08;2.37;;;0.90;;
9256;SDS011;4665;51.368;6.782;2024-02-23T03:00:33;1.47;;;0.60;;
9256;SDS011;4665;51.368;6.782;2024-02-23T03:05:40;2.43;;;0.87;;
9256;SDS011;4665;51.368;6.782;2024-02-23T03:08:06;1.70;;;0.50;;
9256;SDS011;4665;51.368;6.782;2024-02-23T03:16:30;0.43;;;0.40;;
9256;SDS011;4665;51.368;6.782;2024-02-23T03:18:56;1.67;;;0.80;;
9256;SDS011;4665;51.368;6.782;2024-02-23T03:21:21;1.80;;;0.40;;
9256;SDS011;4665;51.368;6.782;2024-02-23T03:26:31;2.80;;;0.63;;
9256;SDS011;4665;51.368;6.782;2024-02-23T03:32:07;1.33;;;0.60;;
9256;SDS011;4665;51.368;6.782;2024-02-23T03:34:33;0.80;;;0.50;;
9256;SDS011;4665;51.368;6.782;2024-02-23T03:37:06;2.40;;;0.50;;
9256;SDS011;4665;51.368;6.782;2024-02-23T03:39:31;1.57;;;0.73;;
9256;SDS011;4665;51.368;6.782;2024-02-23T03:45:00;3.27;;;0.93;;
9256;SDS011;4665;51.368;6.782;2024-02-23T03:47:34;0.30;;;0.30;;
9256;SDS011;4665;51.368;6.782;2024-02-23T03:49:59;0.70;;;0.70;;
9256;SDS011;4665;51.368;6.782;2024-02-23T03:55:10;1.00;;;0.40;;
9256;SDS011;4665;51.368;6.782;2024-02-23T03:57:41;3.80;;;0.63;;
9256;SDS011;4665;51.368;6.782;2024-02-23T04:00:06;1.70;;;0.50;;
9256;SDS011;4665;51.368;6.782;2024-02-23T04:02:45;2.87;;;0.80;;
9256;SDS011;4665;51.368;6.782;2024-02-23T04:05:10;2.53;;;0.83;;
9256;SDS011;4665;51.368;6.782;2024-02-23T04:07:44;0.73;;;0.50;;
9256;SDS011;4665;51.368;6.782;2024-02-23T04:10:09;0.47;;;0.37;;
9256;SDS011;4665;51.368;6.782;2024-02-23T04:15:23;0.93;;;0.30;;
9256;SDS011;4665;51.368;6.782;2024-02-23T04:20:36;2.77;;;0.70;;
9256;SDS011;4665;51.368;6.782;2024-02-23T04:23:07;1.77;;;0.53;;
9256;SDS011;4665;51.368;6.782;2024-02-23T04:25:32;3.33;;;1.03;;
9256;SDS011;4665;51.368;6.782;2024-02-23T04:28:06;1.77;;;0.53;;
9256;SDS011;4665;51.368;6.782;2024-02-23T04:30:31;3.37;;;1.00;;
9256;SDS011;4665;51.368;6.782;2024-02-23T04:33:09;0.33;;;0.33;;
9256;SDS011;4665;51.368;6.782;2024-02-23T04:35:34;0.80;;;0.63;;
9256;SDS011;4665;51.368;6.782;2024-02-23T04:44:05;2.00;;;0.70;;
9256;SDS011;4665;51.368;6.782;2024-02-23T04:49:19;2.27;;;0.77;;
9256;SDS011;4665;51.368;6.782;2024-02-23T04:51:51;0.97;;;0.57;;
9256;SDS011;4665;51.368;6.782;2024-02-23T04:54:17;3.17;;;0.77;;
9256;SDS011;4665;51.368;6.782;2024-02-23T05:05:42;0.80;;;0.67;;
9256;SDS011;4665;51.368;6.782;2024-02-23T05:11:02;1.80;;;0.83;;
9256;SDS011;4665;51.368;6.782;2024-02-23T05:13:30;1.20;;;0.33;;
9256;SDS011;4665;51.368;6.782;2024-02-23T05:15:55;1.90;;;0.60;;
9256;SDS011;4665;51.368;6.782;2024-02-23T05:18:37;0.93;;;0.73;;
9256;SDS011;4665;51.368;6.782;2024-02-23T05:21:02;3.47;;;1.00;;
9256;SDS011;4665;51.368;6.782;2024-02-23T05:23:35;1.20;;;0.60;;
9256;SDS011;4665;51.368;6.782;2024-02-23T05:26:00;3.23;;;0.60;;
9256;SDS011;4665;51.368;6.782;2024-02-23T05:28:33;1.47;;;0.90;;
9256;SDS011;4665;51.368;6.782;2024-02-23T05:30:58;1.07;;;0.53;;
9256;SDS011;4665;51.368;6.782;2024-02-23T05:33:42;0.73;;;0.43;;
9256;SDS011;4665;51.368;6.782;2024-02-23T05:36:07;4.27;;;1.07;;
9256;SDS011;4665;51.368;6.782;2024-02-23T05:38:46;2.30;;;0.80;;
9256;SDS011;4665;51.368;6.782;2024-02-23T05:41:12;2.20;;;0.80;;
9256;SDS011;4665;51.368;6.782;2024-02-23T05:43:40;1.07;;;0.80;;
9256;SDS011;4665;51.368;6.782;2024-02-23T05:46:05;0.97;;;0.63;;
9256;SDS011;4665;51.368;6.782;2024-02-23T05:48:43;2.80;;;0.83;;
9256;SDS011;4665;51.368;6.782;2024-02-23T05:51:08;1.57;;;0.90;;
9256;SDS011;4665;51.368;6.782;2024-02-23T05:53:34;1.43;;;0.57;;
9256;SDS011;4665;51.368;6.782;2024-02-23T05:55:59;0.73;;;0.73;;
9256;SDS011;4665;51.368;6.782;2024-02-23T06:04:30;1.60;;;0.83;;
9256;SDS011;4665;51.368;6.782;2024-02-23T06:09:58;3.97;;;0.53;;
9256;SDS011;4665;51.368;6.782;2024-02-23T06:15:27;1.20;;;0.40;;
9256;SDS011;4665;51.368;6.782;2024-02-23T06:17:53;1.67;;;0.77;;
9256;SDS011;4665;51.368;6.782;2024-02-23T06:26:24;1.17;;;0.83;;
9256;SDS011;4665;51.368;6.782;2024-02-23T06:31:38;1.23;;;0.70;;
9256;SDS011;4665;51.368;6.782;2024-02-23T06:39:53;2.23;;;0.90;;
9256;SDS011;4665;51.368;6.782;2024-02-23T06:48:09;1.87;;;0.70;;
9256;SDS011;4665;51.368;6.782;2024-02-23T06:53:37;2.73;;;1.27;;
9256;SDS011;4665;51.368;6.782;2024-02-23T06:56:03;3.10;;;1.20;;
9256;SDS011;4665;51.368;6.782;2024-02-23T06:58:28;2.90;;;0.97;;
9256;SDS011;4665;51.368;6.782;2024-02-23T07:06:59;3.00;;;1.20;;
9256;SDS011;4665;51.368;6.782;2024-02-23T07:09:26;1.07;;;0.70;;
9256;SDS011;4665;51.368;6.782;2024-02-23T07:11:51;1.73;;;0.63;;
9256;SDS011;4665;51.368;6.782;2024-02-23T07:17:33;0.77;;;0.60;;
9256;SDS011;4665;51.368;6.782;2024-02-23T07:19:59;3.77;;;0.83;;
9256;SDS011;4665;51.368;6.782;2024-02-23T07:25:18;2.47;;;1.37;;
9256;SDS011;4665;51.368;6.782;2024-02-23T07:27:48;1.30;;;0.90;;
9256;SDS011;4665;51.368;6.782;2024-02-23T07:30:14;1.13;;;0.60;;
9256;SDS011;4665;51.368;6.782;2024-02-23T07:35:40;1.20;;;0.70;;
9256;SDS011;4665;51.368;6.782;2024-02-23T07:40:51;1.90;;;0.67;;
9256;SDS011;4665;51.368;6.782;2024-02-23T07:43:17;2.93;;;1.20;;
9256;SDS011;4665;51.368;6.782;2024-02-23T07:45:42;2.67;;;1.20;;
9256;SDS011;4665;51.368;6.782;2024-02-23T07:48:23;1.80;;;0.57;;
9256;SDS011;4665;51.368;6.782;2024-02-23T07:50:49;0.67;;;0.40;;
9256;SDS011;4665;51.368;6.782;2024-02-23T07:56:01;0.87;;;0.63;;
9256;SDS011;4665;51.368;6.782;2024-02-23T07:58:46;2.30;;;0.93;;
9256;SDS011;4665;51.368;6.782;2024-02-23T08:01:12;3.27;;;0.90;;
9256;SDS011;4665;51.368;6.782;2024-02-23T08:06:29;0.60;;;0.47;;
9256;SDS011;4665;51.368;6.782;2024-02-23T08:08:54;1.27;;;0.83;;
9256;SDS011;4665;51.368;6.782;2024-02-23T08:11:27;0.73;;;0.73;;
9256;SDS011;4665;51.368;6.782;2024-02-23T08:13:52;1.97;;;1.20;;
9256;SDS011;4665;51.368;6.782;2024-02-23T08:16:27;3.43;;;1.13;;
9256;SDS011;4665;51.368;6.782;2024-02-23T08:18:52;2.23;;;1.03;;
9256;SDS011;4665;51.368;6.782;2024-02-23T08:24:37;2.20;;;0.80;;
9256;SDS011;4665;51.368;6.782;2024-02-23T08:27:02;2.43;;;0.57;;
9256;SDS011;4665;51.368;6.782;2024-02-23T08:32:08;0.73;;;0.60;;
9256;SDS011;4665;51.368;6.782;2024-02-23T08:34:49;1.70;;;0.77;;
9256;SDS011;4665;51.368;6.782;2024-02-23T08:40:29;2.53;;;0.80;;
9256;SDS011;4665;51.368;6.782;2024-02-23T08:42:54;2.23;;;0.83;;
9256;SDS011;4665;51.368;6.782;2024-02-23T08:45:20;2.83;;;1.10;;
9256;SDS011;4665;51.368;6.782;2024-02-23T08:47:45;2.47;;;0.80;;
9256;SDS011;4665;51.368;6.782;2024-02-23T08:56:01;2.50;;;1.00;;
9256;SDS011;4665;51.368;6.782;2024-02-23T08:58:34;2.70;;;0.90;;
9256;SDS011;4665;51.368;6.782;2024-02-23T09:00:59;0.80;;;0.80;;
9256;SDS011;4665;51.368;6.782;2024-02-23T09:12:09;4.77;;;0.67;;
9256;SDS011;4665;51.368;6.782;2024-02-23T09:17:57;3.27;;;0.90;;
9256;SDS011;4665;51.368;6.782;2024-02-23T09:20:22;1.43;;;0.60;;
9256;SDS011;4665;51.368;6.782;2024-02-23T09:28:43;2.13;;;0.73;;
9256;SDS011;4665;51.368;6.782;2024-02-23T09:31:12;3.40;;;1.13;;
9256;SDS011;4665;51.368;6.782;2024-02-23T09:33:37;0.50;;;0.50;;
9256;SDS011;4665;51.368;6.782;2024-02-23T09:36:11;2.73;;;0.60;;
9256;SDS011;4665;51.368;6.782;2024-02-23T09:38:36;0.87;;;0.57;;
9256;SDS011;4665;51.368;6.782;2024-02-23T09:41:05;1.10;;;0.50;;
9256;SDS011;4665;51.368;6.782;2024-02-23T09:43:35;1.77;;;0.80;;
9256;SDS011;4665;51.368;6.782;2024-02-23T09:46:19;2.63;;;1.00;;
9256;SDS011;4665;51.368;6.782;2024-02-23T09:48:44;2.23;;;1.00;;
9256;SDS011;4665;51.368;6.782;2024-02-23T09:51:22;2.43;;;0.90;;
9256;SDS011;4665;51.368;6.782;2024-02-23T09:53:49;4.43;;;0.97;;
9256;SDS011;4665;51.368;6.782;2024-02-23T09:59:08;1.47;;;0.47;;
9256;SDS011;4665;51.368;6.782;2024-02-23T10:01:51;2.17;;;1.07;;
9256;SDS011;4665;51.368;6.782;2024-02-23T10:04:17;1.23;;;0.73;;
9256;SDS011;4665;51.368;6.782;2024-02-23T10:09:37;1.40;;;0.50;;
9256;SDS011;4665;51.368;6.782;2024-02-23T10:12:15;2.33;;;0.50;;
9256;SDS011;4665;51.368;6.782;2024-02-23T10:14:43;2.80;;;0.83;;
9256;SDS011;4665;51.368;6.782;2024-02-23T10:23:01;1.97;;;0.57;;
9256;SDS011;4665;51.368;6.782;2024-02-23T10:28:03;2.27;;;0.60;;
9256;SDS011;4665;51.368;6.782;2024-02-23T10:36:24;1.03;;;0.70;;
9256;SDS011;4665;51.368;6.782;2024-02-23T10:39:01;0.63;;;0.30;;
9256;SDS011;4665;51.368;6.782;2024-02-23T10:41:28;1.33;;;0.87;;
9256;SDS011;4665;51.368;6.782;2024-02-23T10:44:13;0.97;;;0.37;;
9256;SDS011;4665;51.368;6.782;2024-02-23T10:46:39;0.50;;;0.50;;
9256;SDS011;4665;51.368;6.782;2024-02-23T10:49:06;1.17;;;0.50;;
9256;SDS011;4665;51.368;6.782;2024-02-23T10:51:32;1.63;;;0.80;;
9256;SDS011;4665;51.368;6.782;2024-02-23T10:54:05;2.10;;;0.50;;
9256;SDS011;4665;51.368;6.782;2024-02-23T10:56:31;0.77;;;0.50;;
9256;SDS011;4665;51.368;6.782;2024-02-23T11:04:29;0.50;;;0.50;;
9256;SDS011;4665;51.368;6.782;2024-02-23T11:07:03;3.40;;;0.80;;
9256;SDS011;4665;51.368;6.782;2024-02-23T11:12:43;1.57;;;0.70;;
9256;SDS011;4665;51.368;6.782;2024-02-23T11:15:09;2.60;;;0.57;;
9256;SDS011;4665;51.368;6.782;2024-02-23T11:17:36;1.90;;;0.73;;
9256;SDS011;4665;51.368;6.782;2024-02-23T11:20:05;1.93;;;0.80;;
9256;SDS011;4665;51.368;6.782;2024-02-23T11:22:44;2.47;;;0.70;;
9256;SDS011;4665;51.368;6.782;2024-02-23T11:25:09;2.03;;;0.73;;
9256;SDS011;4665;51.368;6.782;2024-02-23T11:27:53;2.33;;;0.77;;
9256;SDS011;4665;51.368;6.782;2024-02-23T11:30:19;0.50;;;0.50;;
9256;SDS011;4665;51.368;6.782;2024-02-23T11:32:47;1.07;;;0.70;;
9256;SDS011;4665;51.368;6.782;2024-02-23T11:35:14;2.43;;;0.90;;
9256;SDS011;4665;51.368;6.782;2024-02-23T11:40:14;2.87;;;0.97;;
9256;SDS011;4665;51.368;6.782;2024-02-23T11:42:47;0.93;;;0.50;;
9256;SDS011;4665;51.368;6.782;2024-02-23T11:45:12;0.60;;;0.30;;
9256;SDS011;4665;51.368;6.782;2024-02-23T11:47:40;2.57;;;0.63;;
9256;SDS011;4665;51.368;6.782;2024-02-23T11:50:08;3.57;;;0.73;;
9256;SDS011;4665;51.368;6.782;2024-02-23T11:52:48;2.93;;;0.70;;
9256;SDS011;4665;51.368;6.782;2024-02-23T11:55:17;2.13;;;0.93;;
9256;SDS011;4665;51.368;6.782;2024-02-23T12:00:12;1.73;;;1.00;;
9256;SDS011;4665;51.368;6.782;2024-02-23T12:05:26;1.13;;;0.47;;
9256;SDS011;4665;51.368;6.782;2024-02-23T12:07:52;2.63;;;0.53;;
9256;SDS011;4665;51.368;6.782;2024-02-23T12:10:18;1.60;;;0.57;;
9256;SDS011;4665;51.368;6.782;2024-02-23T12:13:01;0.93;;;0.40;;
9256;SDS011;4665;51.368;6.782;2024-02-23T12:15:26;3.63;;;0.90;;
9256;SDS011;4665;51.368;6.782;2024-02-23T12:17:57;0.77;;;0.50;;
9256;SDS011;4665;51.368;6.782;2024-02-23T12:20:23;0.87;;;0.87;;
9256;SDS011;4665;51.368;6.782;2024-02-23T12:34:54;1.13;;;0.60;;
9256;SDS011;4665;51.368;6.782;2024-02-23T12:37:22;2.10;;;0.33;;
9256;SDS011;4665;51.368;6.782;2024-02-23T12:39:48;1.27;;;0.67;;
9256;SDS011;4665;51.368;6.782;2024-02-23T12:45:09;1.73;;;0.90;;
9256;SDS011;4665;51.368;6.782;2024-02-23T12:47:34;1.07;;;0.87;;
9256;SDS011;4665;51.368;6.782;2024-02-23T12:50:00;1.87;;;0.90;;
9256;SDS011;4665;51.368;6.782;2024-02-23T12:52:35;4.60;;;1.17;;
9256;SDS011;4665;51.368;6.782;2024-02-23T12:55:01;1.90;;;0.50;;
9256;SDS011;4665;51.368;6.782;2024-02-23T13:03:47;2.63;;;0.77;;
9256;SDS011;4665;51.368;6.782;2024-02-23T13:06:12;1.93;;;0.87;;
9256;SDS011;4665;51.368;6.782;2024-02-23T13:11:25;0.37;;;0.37;;
9256;SDS011;4665;51.368;6.782;2024-02-23T13:13:57;2.50;;;0.90;;
9256;SDS011;4665;51.368;6.782;2024-02-23T13:16:23;2.27;;;0.60;;
9256;SDS011;4665;51.368;6.782;2024-02-23T13:18:59;0.53;;;0.53;;
9256;SDS011;4665;51.368;6.782;2024-02-23T13:21:24;1.40;;;1.07;;
9256;SDS011;4665;51.368;6.782;2024-02-23T13:23:50;3.27;;;1.20;;
9256;SDS011;4665;51.368;6.782;2024-02-23T13:26:15;2.53;;;0.73;;
9256;SDS011;4665;51.368;6.782;2024-02-23T13:28:43;1.30;;;0.60;;
9256;SDS011;4665;51.368;6.782;2024-02-23T13:31:10;2.57;;;0.70;;
9256;SDS011;4665;51.368;6.782;2024-02-23T13:33:35;0.80;;;0.80;;
9256;SDS011;4665;51.368;6.782;2024-02-23T13:38:40;3.43;;;0.83;;
9256;SDS011;4665;51.368;6.782;2024-02-23T13:43:55;1.20;;;0.77;;
9256;SDS011;4665;51.368;6.782;2024-02-23T13:46:30;3.00;;;0.93;;
9256;SDS011;4665;51.368;6.782;2024-02-23T13:49:02;3.07;;;0.50;;
9256;SDS011;4665;51.368;6.782;2024-02-23T13:51:43;4.07;;;0.80;;
9256;SDS011;4665;51.368;6.782;2024-02-23T13:54:09;1.30;;;0.90;;
9256;SDS011;4665;51.368;6.782;2024-02-23T13:56:48;2.50;;;1.00;;
9256;SDS011;4665;51.368;6.782;2024-02-23T13:59:13;1.43;;;0.83;;
9256;SDS011;4665;51.368;6.782;2024-02-23T14:04:27;1.10;;;0.80;;
9256;SDS011;4665;51.368;6.782;2024-02-23T14:09:56;1.57;;;1.10;;
9256;SDS011;4665;51.368;6.782;2024-02-23T14:12:21;1.93;;;0.60;;
9256;SDS011;4665;51.368;6.782;2024-02-23T14:14:58;0.77;;;0.50;;
9256;SDS011;4665;51.368;6.782;2024-02-23T14:17:24;1.13;;;0.70;;
9256;SDS011;4665;51.368;6.782;2024-02-23T14:19:56;1.43;;;0.57;;
9256;SDS011;4665;51.368;6.782;2024-02-23T14:22:22;0.73;;;0.57;;
9256;SDS011;4665;51.368;6.782;2024-02-23T14:24:48;1.40;;;0.70;;
9256;SDS011;4665;51.368;6.782;2024-02-23T14:27:13;1.10;;;0.63;;
9256;SDS011;4665;51.368;6.782;2024-02-23T14:32:44;1.17;;;0.70;;
9256;SDS011;4665;51.368;6.782;2024-02-23T14:35:09;0.83;;;0.50;;
9256;SDS011;4665;51.368;6.782;2024-02-23T14:37:53;3.73;;;0.70;;
9256;SDS011;4665;51.368;6.782;2024-02-23T14:40:18;2.57;;;0.67;;
9256;SDS011;4665;51.368;6.782;2024-02-23T14:43:00;1.70;;;0.50;;
9256;SDS011;4665;51.368;6.782;2024-02-23T14:45:25;1.73;;;0.70;;
9256;SDS011;4665;51.368;6.782;2024-02-23T14:47:56;1.47;;;0.40;;
9256;SDS011;4665;51.368;6.782;2024-02-23T14:50:23;1.30;;;0.53;;
9256;SDS011;4665;51.368;6.782;2024-02-23T14:58:54;2.03;;;0.60;;
9256;SDS011;4665;51.368;6.782;2024-02-23T15:01:19;2.17;;;0.60;;
9256;SDS011;4665;51.368;6.782;2024-02-23T15:14:09;2.30;;;0.50;;
9256;SDS011;4665;51.368;6.782;2024-02-23T15:19:48;1.77;;;0.90;;
9256;SDS011;4665;51.368;6.782;2024-02-23T15:22:14;3.10;;;1.10;;
9256;SDS011;4665;51.368;6.782;2024-02-23T15:24:42;0.30;;;0.20;;
9256;SDS011;4665;51.368;6.782;2024-02-23T15:27:07;0.30;;;0.30;;
9256;SDS011;4665;51.368;6.782;2024-02-23T15:29:36;0.30;;;0.30;;
9256;SDS011;4665;51.368;6.782;2024-02-23T15:32:01;1.00;;;0.57;;
9256;SDS011;4665;51.368;6.782;2024-02-23T15:34:27;1.40;;;0.33;;
9256;SDS011;4665;51.368;6.782;2024-02-23T15:36:52;1.23;;;0.50;;
9256;SDS011;4665;51.368;6.782;2024-02-23T15:39:19;2.20;;;0.60;;
9256;SDS011;4665;51.368;6.782;2024-02-23T15:41:45;1.70;;;0.43;;
9256;SDS011;4665;51.368;6.782;2024-02-23T15:44:19;3.03;;;0.80;;
9256;SDS011;4665;51.368;6.782;2024-02-23T15:46:45;2.07;;;0.40;;
9256;SDS011;4665;51.368;6.782;2024-02-23T15:49:13;0.60;;;0.43;;
9256;SDS011;4665;51.368;6.782;2024-02-23T15:51:38;0.50;;;0.30;;
9256;SDS011;4665;51.368;6.782;2024-02-23T15:54:04;0.30;;;0.30;;
9256;SDS011;4665;51.368;6.782;2024-02-23T15:56:30;1.00;;;0.37;;
9256;SDS011;4665;51.368;6.782;2024-02-23T15:58:57;1.27;;;0.60;;
9256;SDS011;4665;51.368;6.782;2024-02-23T16:01:22;0.43;;;0.43;;
9256;SDS011;4665;51.368;6.782;2024-02-23T16:03:49;0.77;;;0.60;;
9256;SDS011;4665;51.368;6.782;2024-02-23T16:06:14;1.90;;;0.50;;
9256;SDS011;4665;51.368;6.782;2024-02-23T16:11:05;1.47;;;0.50;;
9256;SDS011;4665;51.368;6.782;2024-02-23T16:13:35;1.40;;;0.60;;
9256;SDS011;4665;51.368;6.782;2024-02-23T16:16:00;0.97;;;0.67;;
9256;SDS011;4665;51.368;6.782;2024-02-23T16:18:28;0.60;;;0.60;;
9256;SDS011;4665;51.368;6.782;2024-02-23T16:20:53;1.17;;;0.67;;
9256;SDS011;4665;51.368;6.782;2024-02-23T16:23:25;2.73;;;0.70;;
9256;SDS011;4665;51.368;6.782;2024-02-23T16:25:50;1.67;;;0.70;;
9256;SDS011;4665;51.368;6.782;2024-02-23T16:28:15;1.50;;;0.50;;
9256;SDS011;4665;51.368;6.782;2024-02-23T16:30:41;0.67;;;0.40;;
9256;SDS011;4665;51.368;6.782;2024-02-23T16:33:06;1.20;;;0.63;;
9256;SDS011;4665;51.368;6.782;2024-02-23T16:35:31;1.73;;;1.40;;
9256;SDS011;4665;51.368;6.782;2024-02-23T16:37:59;1.40;;;1.23;;
9256;SDS011;4665;51.368;6.782;2024-02-23T16:40:25;1.13;;;0.70;;
9256;SDS011;4665;51.368;6.782;2024-02-23T16:42:53;1.63;;;0.77;;
9256;SDS011;4665;51.368;6.782;2024-02-23T16:45:19;1.80;;;1.10;;
9256;SDS011;4665;51.368;6.782;2024-02-23T16:47:52;0.53;;;0.43;;
9256;SDS011;4665;51.368;6.782;2024-02-23T16:50:18;1.20;;;0.60;;
9256;SDS011;4665;51.368;6.782;2024-02-23T16:52:51;0.87;;;0.80;;
9256;SDS011;4665;51.368;6.782;2024-02-23T16:55:17;2.80;;;0.83;;
9256;SDS011;4665;51.368;6.782;2024-02-23T17:00:11;1.60;;;0.97;;
9256;SDS011;4665;51.368;6.782;2024-02-23T17:05:22;0.70;;;0.70;;
9256;SDS011;4665;51.368;6.782;2024-02-23T17:07:48;1.47;;;1.30;;
9256;SDS011;4665;51.368;6.782;2024-02-23T17:10:19;2.43;;;0.93;;
9256;SDS011;4665;51.368;6.782;2024-02-23T17:12:44;0.97;;;0.97;;
9256;SDS011;4665;51.368;6.782;2024-02-23T17:15:20;1.03;;;0.90;;
9256;SDS011;4665;51.368;6.782;2024-02-23T17:17:45;0.87;;;0.87;;
9256;SDS011;4665;51.368;6.782;2024-02-23T17:20:21;1.63;;;1.03;;
9256;SDS011;4665;51.368;6.782;2024-02-23T17:22:46;2.20;;;1.03;;
9256;SDS011;4665;51.368;6.782;2024-02-23T17:25:30;1.93;;;1.07;;
9256;SDS011;4665;51.368;6.782;2024-02-23T17:27:55;2.07;;;1.13;;
9256;SDS011;4665;51.368;6.782;2024-02-23T17:30:28;1.00;;;1.00;;
9256;SDS011;4665;51.368;6.782;2024-02-23T17:32:54;2.67;;;1.10;;
9256;SDS011;4665;51.368;6.782;2024-02-23T17:35:21;1.33;;;1.10;;
9256;SDS011;4665;51.368;6.782;2024-02-23T17:37:47;1.33;;;1.20;;
9256;SDS011;4665;51.368;6.782;2024-02-23T17:42:42;2.30;;;0.93;;
9256;SDS011;4665;51.368;6.782;2024-02-23T17:45:09;1.63;;;1.30;;
9256;SDS011;4665;51.368;6.782;2024-02-23T17:47:35;1.00;;;1.00;;
9256;SDS011;4665;51.368;6.782;2024-02-23T17:50:10;1.30;;;1.20;;
9256;SDS011;4665;51.368;6.782;2024-02-23T17:52:36;1.60;;;1.20;;
9256;SDS011;4665;51.368;6.782;2024-02-23T17:55:01;2.03;;;1.60;;
9256;SDS011;4665;51.368;6.782;2024-02-23T17:57:26;2.17;;;1.57;;
9256;SDS011;4665;51.368;6.782;2024-02-23T17:59:58;1.27;;;1.17;;
9256;SDS011;4665;51.368;6.782;2024-02-23T18:02:23;1.50;;;1.40;;
9256;SDS011;4665;51.368;6.782;2024-02-23T18:07:34;1.60;;;1.50;;
9256;SDS011;4665;51.368;6.782;2024-02-23T18:10:00;3.10;;;2.23;;
9256;SDS011;4665;51.368;6.782;2024-02-23T18:12:25;2.67;;;2.30;;
9256;SDS011;4665;51.368;6.782;2024-02-23T18:14:59;2.03;;;1.80;;
9256;SDS011;4665;51.368;6.782;2024-02-23T18:17:24;1.87;;;1.77;;
9256;SDS011;4665;51.368;6.782;2024-02-23T18:19:50;1.83;;;1.70;;
9256;SDS011;4665;51.368;6.782;2024-02-23T18:22:15;4.53;;;2.30;;
9256;SDS011;4665;51.368;6.782;2024-02-23T18:24:42;1.50;;;1.40;;
9256;SDS011;4665;51.368;6.782;2024-02-23T18:27:08;1.73;;;1.60;;
9256;SDS011;4665;51.368;6.782;2024-02-23T18:29:35;2.37;;;1.50;;
9256;SDS011;4665;51.368;6.782;2024-02-23T18:32:00;2.03;;;1.37;;
9256;SDS011;4665;51.368;6.782;2024-02-23T18:34:29;2.33;;;1.63;;
9256;SDS011;4665;51.368;6.782;2024-02-23T18:36:55;0.90;;;0.90;;
9256;SDS011;4665;51.368;6.782;2024-02-23T18:39:20;1.47;;;1.37;;
9256;SDS011;4665;51.368;6.782;2024-02-23T18:41:45;1.60;;;1.40;;
9256;SDS011;4665;51.368;6.782;2024-02-23T18:47:22;2.83;;;2.00;;
9256;SDS011;4665;51.368;6.782;2024-02-23T18:49:48;2.67;;;1.53;;
9256;SDS011;4665;51.368;6.782;2024-02-23T18:52:14;2.37;;;1.57;;
9256;SDS011;4665;51.368;6.782;2024-02-23T18:54:40;1.00;;;0.97;;
9256;SDS011;4665;51.368;6.782;2024-02-23T18:57:08;1.67;;;1.40;;
9256;SDS011;4665;51.368;6.782;2024-02-23T18:59:33;1.37;;;1.10;;
9256;SDS011;4665;51.368;6.782;2024-02-23T19:04:28;2.63;;;1.10;;
9256;SDS011;4665;51.368;6.782;2024-02-23T19:06:57;3.30;;;1.43;;
9256;SDS011;4665;51.368;6.782;2024-02-23T19:09:22;2.60;;;1.07;;
9256;SDS011;4665;51.368;6.782;2024-02-23T19:11:48;2.87;;;1.10;;
9256;SDS011;4665;51.368;6.782;2024-02-23T19:14:17;1.43;;;1.00;;
9256;SDS011;4665;51.368;6.782;2024-02-23T19:16:43;2.27;;;1.30;;
9256;SDS011;4665;51.368;6.782;2024-02-23T19:24:47;2.43;;;1.20;;
9256;SDS011;4665;51.368;6.782;2024-02-23T19:27:13;1.33;;;1.07;;
9256;SDS011;4665;51.368;6.782;2024-02-23T19:29:39;3.17;;;1.07;;
9256;SDS011;4665;51.368;6.782;2024-02-23T19:32:11;1.40;;;0.87;;
9256;SDS011;4665;51.368;6.782;2024-02-23T19:34:36;1.10;;;1.10;;
9256;SDS011;4665;51.368;6.782;2024-02-23T19:37:02;0.63;;;0.63;;
9256;SDS011;4665;51.368;6.782;2024-02-23T19:39:27;0.90;;;0.80;;
9256;SDS011;4665;51.368;6.782;2024-02-23T19:44:53;1.20;;;0.63;;
9256;SDS011;4665;51.368;6.782;2024-02-23T19:49:48;0.83;;;0.83;;
9256;SDS011;4665;51.368;6.782;2024-02-23T19:52:21;1.27;;;1.00;;
9256;SDS011;4665;51.368;6.782;2024-02-23T19:54:47;2.23;;;0.87;;
9256;SDS011;4665;51.368;6.782;2024-02-23T19:57:21;1.37;;;0.87;;
9256;SDS011;4665;51.368;6.782;2024-02-23T19:59:46;1.17;;;0.53;;
9256;SDS011;4665;51.368;6.782;2024-02-23T20:02:12;0.70;;;0.70;;
9256;SDS011;4665;51.368;6.782;2024-02-23T20:04:44;0.53;;;0.53;;
9256;SDS011;4665;51.368;6.782;2024-02-23T20:07:15;1.03;;;0.70;;
9256;SDS011;4665;51.368;6.782;2024-02-23T20:09:41;0.43;;;0.43;;
9256;SDS011;4665;51.368;6.782;2024-02-23T20:14:58;0.70;;;0.50;;
9256;SDS011;4665;51.368;6.782;2024-02-23T20:17:30;0.60;;;0.60;;